Time;durP1;ratioP1;P1;durP2;ratioP2;P2;SDS_P1;SDS_P2;PMS_P1;PMS_P2;Temp;Humidity;BMP_temperature;BMP_pressure;BME280_temperature;BME280_humidity;BME280_pressure;Samples;Min_cycle;Max_cycle;Signal;HPM_P1;HPM_P2
2021/12/29 00:01:34;;;;;;;6.43;5.97;;;;;;;3.78;100.00;91625.59;4885956;29;20591;-72
2021/12/29 00:04:02;;;;;;;9.90;7.60;;;;;;;3.90;100.00;91622.69;4885612;29;20551;-72
2021/12/29 00:06:30;;;;;;;8.57;7.87;;;;;;;3.91;100.00;91631.00;4885903;29;20564;-72
2021/12/29 00:08:59;;;;;;;6.27;5.80;;;;;;;3.87;100.00;91624.50;4885426;29;20571;-72
2021/12/29 00:11:26;;;;;;;14.93;8.83;;;;;;;3.90;100.00;91630.19;4885170;29;20277;-72
2021/12/29 00:13:54;;;;;;;9.47;8.83;;;;;;;3.93;100.00;91651.78;4885535;29;20562;-72
2021/12/29 00:16:21;;;;;;;11.77;10.83;;;;;;;3.96;100.00;91642.47;4885841;29;20523;-72
2021/12/29 00:18:48;;;;;;;21.37;13.17;;;;;;;3.97;100.00;91649.09;4886263;29;20482;-72
2021/12/29 00:21:17;;;;;;;15.67;14.27;;;;;;;3.88;100.00;91646.94;4886290;29;20510;-72
2021/12/29 00:23:44;;;;;;;14.17;12.13;;;;;;;3.80;100.00;91643.03;4885982;29;20199;-72
2021/12/29 00:26:14;;;;;;;12.93;11.67;;;;;;;3.71;100.00;91621.69;4885599;29;20530;-72
2021/12/29 00:28:42;;;;;;;9.60;9.00;;;;;;;3.82;100.00;91653.81;4885404;29;20547;-72
2021/12/29 00:31:09;;;;;;;13.10;11.20;;;;;;;3.82;100.00;91659.63;4885321;29;20574;-72
2021/12/29 00:33:36;;;;;;;13.13;11.83;;;;;;;3.86;100.00;91661.13;4885633;29;20234;-72
2021/12/29 00:36:04;;;;;;;54.30;13.70;;;;;;;3.86;100.00;91655.31;4885642;29;20535;-72
2021/12/29 00:38:32;;;;;;;25.90;12.77;;;;;;;3.80;100.00;91666.34;4885720;29;20510;-72
2021/12/29 00:41:00;;;;;;;19.27;14.37;;;;;;;3.79;100.00;91663.88;4886492;29;20536;-72
2021/12/29 00:43:27;;;;;;;25.93;14.63;;;;;;;3.79;100.00;91659.69;4885977;29;20202;-72
2021/12/29 00:45:54;;;;;;;22.17;14.57;;;;;;;3.73;100.00;91659.91;4884974;29;20202;-72
2021/12/29 00:48:25;;;;;;;21.87;15.20;;;;;;;3.54;100.00;91646.41;4885206;29;20521;-72
2021/12/29 00:50:52;;;;;;;14.17;12.83;;;;;;;3.59;100.00;91657.06;4885025;29;20606;-72
2021/12/29 00:53:19;;;;;;;17.43;11.63;;;;;;;3.70;100.00;91657.53;4885700;29;20481;-72
2021/12/29 00:55:48;;;;;;;14.00;12.53;;;;;;;3.78;100.00;91668.06;4882338;29;20498;-72
2021/12/29 00:58:15;;;;;;;11.40;10.17;;;;;;;3.70;100.00;91670.00;4882704;29;20486;-72
2021/12/29 01:00:43;;;;;;;11.93;10.97;;;;;;;3.69;100.00;91659.19;4883141;29;20551;-72
2021/12/29 01:03:11;;;;;;;16.07;12.73;;;;;;;3.75;100.00;91656.50;4883059;29;20198;-72
2021/12/29 01:05:39;;;;;;;17.07;11.90;;;;;;;3.79;100.00;91656.38;4882213;29;20551;-72
2021/12/29 01:08:07;;;;;;;12.90;10.47;;;;;;;3.74;100.00;91651.56;4881997;29;20564;-72
2021/12/29 01:10:35;;;;;;;12.90;11.57;;;;;;;3.65;100.00;91645.19;4882537;29;20548;-72
2021/12/29 01:13:06;;;;;;;10.83;9.40;;;;;;;3.71;100.00;91637.50;4882750;29;20222;-72
2021/12/29 01:15:48;;;;;;;9.70;9.10;;;;;;;3.54;100.00;91632.25;4881754;29;20843;-72
2021/12/29 01:18:15;;;;;;;8.23;7.43;;;;;;;3.44;100.00;91643.34;4882860;29;20674;-72
2021/12/29 01:20:42;;;;;;;12.30;8.17;;;;;;;3.50;100.00;91637.34;4881602;29;20575;-72
2021/12/29 01:23:09;;;;;;;12.50;7.97;;;;;;;3.54;100.00;91634.72;4882501;29;20590;-72
2021/12/29 01:25:37;;;;;;;10.67;9.63;;;;;;;3.51;100.00;91629.00;4881653;29;20576;-72
2021/12/29 01:28:06;;;;;;;8.37;7.63;;;;;;;3.54;100.00;91621.44;4882049;29;20631;-72
2021/12/29 01:30:33;;;;;;;6.43;5.13;;;;;;;3.66;100.00;91624.31;4881776;29;20602;-72
2021/12/29 01:33:05;;;;;;;6.70;5.90;;;;;;;3.68;100.00;91620.09;4881568;29;20580;-72
2021/12/29 01:35:33;;;;;;;5.93;5.63;;;;;;;3.57;100.00;91617.16;4882835;29;20622;-72
2021/12/29 01:38:00;;;;;;;7.33;6.73;;;;;;;3.62;100.00;91607.00;4882267;29;20592;-72
2021/12/29 01:40:28;;;;;;;5.30;4.90;;;;;;;3.71;100.00;91607.53;4882326;29;20191;-72
2021/12/29 01:42:56;;;;;;;5.53;5.10;;;;;;;3.71;100.00;91606.72;4882044;29;20221;-73
2021/12/29 01:45:25;;;;;;;7.23;6.83;;;;;;;3.73;100.00;91603.28;4881864;29;20472;-72
2021/12/29 01:47:53;;;;;;;6.27;5.97;;;;;;;3.77;100.00;91595.69;4881587;29;20319;-72
2021/12/29 01:50:21;;;;;;;9.93;7.43;;;;;;;3.94;100.00;91615.94;4881191;29;20199;-72
2021/12/29 01:52:54;;;;;;;6.63;6.27;;;;;;;3.92;100.00;91602.66;4881427;29;20595;-72
2021/12/29 01:55:25;;;;;;;6.47;5.87;;;;;;;4.02;100.00;91614.78;4881547;29;20654;-72
2021/12/29 01:57:53;;;;;;;6.67;6.20;;;;;;;4.08;100.00;91603.75;4882308;29;20466;-72
2021/12/29 02:00:23;;;;;;;15.10;11.53;;;;;;;3.99;100.00;91609.91;4881851;29;20587;-72
2021/12/29 02:02:52;;;;;;;20.20;12.87;;;;;;;3.99;100.00;91619.91;4882683;29;20203;-72
2021/12/29 02:05:19;;;;;;;19.43;11.93;;;;;;;3.90;100.00;91612.69;4881713;29;20595;-72
2021/12/29 02:07:46;;;;;;;12.57;11.43;;;;;;;3.86;100.00;91608.69;4882036;29;20534;-72
2021/12/29 02:10:16;;;;;;;15.73;13.37;;;;;;;3.85;100.00;91607.03;4881470;29;20602;-72
2021/12/29 02:12:44;;;;;;;16.23;13.10;;;;;;;3.85;100.00;91611.22;4881345;29;20486;-72
2021/12/29 02:15:13;;;;;;;22.30;12.97;;;;;;;3.81;100.00;91618.03;4880782;29;20537;-72
2021/12/29 02:17:40;;;;;;;20.77;13.67;;;;;;;3.63;100.00;91616.94;4880871;29;20563;-72
2021/12/29 02:20:12;;;;;;;16.33;12.90;;;;;;;3.47;100.00;91607.50;4880795;29;20568;-72
2021/12/29 02:22:44;;;;;;;28.80;13.70;;;;;;;3.54;100.00;91608.94;4881303;29;20558;-72
2021/12/29 02:25:32;;;;;;;11.30;9.47;;;;;;;3.48;100.00;91604.16;4881683;29;20210;-72
2021/12/29 02:28:02;;;;;;;18.70;11.73;;;;;;;3.38;100.00;91602.81;4881221;29;20211;-72
2021/12/29 02:30:29;;;;;;;17.40;12.33;;;;;;;3.47;100.00;91605.00;4881365;29;20541;-72
2021/12/29 02:33:02;;;;;;;11.70;10.53;;;;;;;3.48;100.00;91602.47;4881057;29;20211;-72
2021/12/29 02:35:31;;;;;;;11.60;10.40;;;;;;;3.53;100.00;91600.63;4881536;29;20631;-72
2021/12/29 02:37:59;;;;;;;19.53;11.00;;;;;;;3.57;100.00;91593.84;4881019;29;20479;-72
2021/12/29 02:40:29;;;;;;;10.47;9.57;;;;;;;3.61;100.00;91600.38;4880373;29;20507;-72
2021/12/29 02:42:56;;;;;;;19.20;10.73;;;;;;;3.65;100.00;91596.91;4881040;29;20477;-72
2021/12/29 02:45:26;;;;;;;16.37;11.57;;;;;;;3.68;100.00;91592.63;4880788;29;20477;-72
2021/12/29 02:47:53;;;;;;;27.33;13.47;;;;;;;3.79;100.00;91597.25;4880362;29;20285;-72
2021/12/29 02:50:20;;;;;;;21.63;13.40;;;;;;;3.71;100.00;91591.72;4881104;29;20227;-72
2021/12/29 02:52:49;;;;;;;21.67;12.43;;;;;;;3.63;100.00;91583.66;4881006;29;20603;-72
2021/12/29 02:55:17;;;;;;;20.27;12.73;;;;;;;3.72;100.00;91588.34;4880372;29;20499;-72
2021/12/29 02:57:44;;;;;;;10.43;9.57;;;;;;;3.70;100.00;91587.59;4880309;29;20282;-72
2021/12/29 03:00:14;;;;;;;9.77;8.37;;;;;;;3.60;100.00;91583.78;4879769;29;20215;-72
2021/12/29 03:02:41;;;;;;;7.30;6.63;;;;;;;3.63;100.00;91583.66;4880710;29;20477;-72
2021/12/29 03:05:09;;;;;;;6.97;5.53;;;;;;;3.67;100.00;91588.50;4881231;29;20526;-72
2021/12/29 03:07:37;;;;;;;7.03;6.43;;;;;;;3.73;100.00;91588.28;4880427;29;20591;-72
2021/12/29 03:10:06;;;;;;;6.97;6.20;;;;;;;3.91;100.00;91588.53;4880953;29;20494;-72
2021/12/29 03:12:34;;;;;;;7.50;6.93;;;;;;;4.01;100.00;91582.34;4880087;29;20463;-73
2021/12/29 03:15:01;;;;;;;5.77;5.23;;;;;;;4.06;100.00;91576.31;4880609;29;20638;-73
2021/12/29 03:17:30;;;;;;;7.67;7.00;;;;;;;4.09;100.00;91578.72;4879563;29;20252;-72
2021/12/29 03:19:57;;;;;;;6.13;5.63;;;;;;;4.12;100.00;91573.59;4880020;29;20264;-72
2021/12/29 03:22:25;;;;;;;6.80;6.23;;;;;;;4.20;100.00;91585.03;4880119;29;20527;-72
2021/12/29 03:24:52;;;;;;;8.00;7.27;;;;;;;4.21;100.00;91584.16;4880291;29;20491;-72
2021/12/29 03:27:21;;;;;;;16.33;8.00;;;;;;;4.23;100.00;91577.41;4879523;29;20569;-73
2021/12/29 03:29:48;;;;;;;7.17;6.57;;;;;;;4.17;100.00;91576.75;4880269;29;20462;-72
2021/12/29 03:32:23;;;;;;;15.27;10.63;;;;;;;4.13;100.00;91584.41;4879450;29;20602;-72
2021/12/29 03:34:50;;;;;;;10.73;9.50;;;;;;;4.14;100.00;91586.88;4880474;29;20590;-72
2021/12/29 03:37:17;;;;;;;12.93;10.20;;;;;;;4.20;100.00;91585.84;4861207;29;20471;-72
2021/12/29 03:39:45;;;;;;;18.57;14.13;;;;;;;4.25;100.00;91583.16;4862718;29;20589;-73
2021/12/29 03:42:12;;;;;;;25.53;17.47;;;;;;;4.13;100.00;91559.44;4879872;29;20598;-72
2021/12/29 03:44:41;;;;;;;24.17;16.63;;;;;;;4.22;100.00;91578.28;4880431;29;20565;-72
2021/12/29 03:47:08;;;;;;;24.60;16.57;;;;;;;4.29;100.00;91579.69;4879831;29;20536;-72
2021/12/29 03:49:35;;;;;;;24.90;16.83;;;;;;;4.24;100.00;91581.53;4879903;29;20633;-72
2021/12/29 03:52:04;;;;;;;23.33;15.07;;;;;;;4.25;100.00;91588.16;4879763;29;20531;-72
2021/12/29 03:54:31;;;;;;;21.83;15.37;;;;;;;4.16;100.00;91582.66;4880344;29;20449;-73
2021/12/29 03:57:02;;;;;;;22.27;14.97;;;;;;;4.13;100.00;91576.91;4881534;29;20643;-72
2021/12/29 03:59:29;;;;;;;15.70;13.83;;;;;;;4.07;100.00;91575.47;4879631;29;20576;-72
2021/12/29 04:01:59;;;;;;;18.57;13.40;;;;;;;4.07;100.00;91572.97;4879727;29;20479;-73
2021/12/29 04:04:26;;;;;;;22.60;15.10;;;;;;;4.01;100.00;91574.84;4880240;29;20579;-73
2021/12/29 04:06:54;;;;;;;19.70;14.67;;;;;;;3.89;100.00;91572.81;4880185;29;20451;-72
2021/12/29 04:09:21;;;;;;;17.20;13.63;;;;;;;3.85;100.00;91578.75;4879536;29;20476;-73
2021/12/29 04:11:50;;;;;;;19.80;13.37;;;;;;;3.88;100.00;91568.66;4879488;29;20480;-72
2021/12/29 04:14:19;;;;;;;24.50;17.23;;;;;;;3.92;100.00;91567.69;4879170;29;20626;-72
2021/12/29 04:16:46;;;;;;;18.60;13.17;;;;;;;3.94;100.00;91563.47;4879508;29;20616;-72
2021/12/29 04:19:28;;;;;;;33.60;15.93;;;;;;;4.03;100.00;91556.44;4879193;29;20477;-72
2021/12/29 04:21:57;;;;;;;20.37;13.93;;;;;;;4.05;100.00;91559.72;4880484;29;20480;-73
2021/12/29 04:24:25;;;;;;;47.73;15.60;;;;;;;4.07;100.00;91555.47;4879677;29;20553;-72
2021/12/29 04:26:52;;;;;;;21.57;17.00;;;;;;;4.00;100.00;91560.75;4879956;29;20206;-72
2021/12/29 04:29:20;;;;;;;24.17;16.53;;;;;;;3.87;100.00;91555.38;4880154;29;20222;-73
2021/12/29 04:31:47;;;;;;;29.87;18.40;;;;;;;3.90;100.00;91557.75;4882649;29;20199;-73
2021/12/29 04:34:16;;;;;;;18.93;14.67;;;;;;;4.01;100.00;91558.19;4883318;29;20606;-73
2021/12/29 04:36:43;;;;;;;32.03;18.07;;;;;;;3.99;100.00;91557.44;4882474;29;20611;-73
2021/12/29 04:39:10;;;;;;;21.03;15.73;;;;;;;4.06;100.00;91558.81;4883524;29;20543;-73
2021/12/29 04:41:37;;;;;;;15.80;14.20;;;;;;;4.09;100.00;91555.41;4883048;29;20572;-74
2021/12/29 04:44:05;;;;;;;11.87;10.80;;;;;;;4.14;100.00;91546.88;4882805;29;20578;-73
2021/12/29 04:46:38;;;;;;;9.90;8.80;;;;;;;4.12;100.00;91538.63;4882514;29;20583;-73
2021/12/29 04:49:06;;;;;;;10.37;9.30;;;;;;;4.15;100.00;91545.22;4882989;29;20195;-73
2021/12/29 04:51:36;;;;;;;9.03;8.27;;;;;;;4.16;100.00;91535.16;4882840;29;20540;-73
2021/12/29 04:54:06;;;;;;;9.80;9.00;;;;;;;4.15;100.00;91528.53;4883343;29;20479;-73
2021/12/29 04:56:33;;;;;;;9.70;8.80;;;;;;;4.20;100.00;91525.03;4882900;29;20501;-73
2021/12/29 04:59:01;;;;;;;15.30;9.67;;;;;;;4.10;100.00;91502.91;4882613;29;20622;-73
2021/12/29 05:01:28;;;;;;;13.63;11.60;;;;;;;4.15;100.00;91506.03;4882271;29;20619;-73
2021/12/29 05:03:56;;;;;;;13.87;10.83;;;;;;;4.13;100.00;91494.47;4883234;29;20500;-72
2021/12/29 05:09:09;;;;;;;15.87;13.80;;;;;;;4.34;100.00;91492.88;4882463;29;20539;-72
2021/12/29 05:11:54;;;;;;;17.57;13.17;;;;;;;4.25;100.00;91498.19;4881768;29;20214;-72
2021/12/29 05:14:22;;;;;;;19.97;12.87;;;;;;;4.23;100.00;91497.41;4882895;29;20199;-72
2021/12/29 05:16:49;;;;;;;26.27;14.77;;;;;;;4.25;100.00;91493.19;4881239;29;20632;-73
2021/12/29 05:19:16;;;;;;;12.83;11.93;;;;;;;4.23;100.00;91489.94;4881930;29;20492;-73
2021/12/29 05:21:43;;;;;;;24.83;15.23;;;;;;;4.28;100.00;91493.09;4882396;29;20199;-73
2021/12/29 05:24:12;;;;;;;19.70;14.23;;;;;;;4.33;100.00;91501.22;4882410;29;20615;-73
2021/12/29 05:26:40;;;;;;;46.60;19.03;;;;;;;4.35;100.00;91500.28;4882497;29;20207;-73
2021/12/29 05:29:07;;;;;;;55.00;29.63;;;;;;;4.29;100.00;91485.50;4882349;29;20599;-72
2021/12/29 05:31:34;;;;;;;56.70;26.67;;;;;;;4.33;100.00;91501.22;4882757;29;20612;-72
2021/12/29 05:34:02;;;;;;;55.60;29.87;;;;;;;4.27;100.00;91507.28;4881695;29;20619;-72
2021/12/29 05:36:29;;;;;;;43.47;24.50;;;;;;;4.15;100.00;91512.72;4882089;29;20230;-72
2021/12/29 05:38:57;;;;;;;54.97;29.43;;;;;;;4.10;100.00;91519.56;4881818;29;20579;-72
2021/12/29 05:41:26;;;;;;;41.50;25.93;;;;;;;4.04;100.00;91522.28;4881136;29;20631;-73
2021/12/29 05:43:53;;;;;;;40.93;25.13;;;;;;;3.96;100.00;91520.06;4881436;29;20453;-73
2021/12/29 05:46:21;;;;;;;22.90;20.47;;;;;;;3.93;100.00;91526.84;4881626;29;20202;-72
2021/12/29 05:48:48;;;;;;;32.33;20.77;;;;;;;3.91;100.00;91521.91;4882320;29;20194;-72
2021/12/29 05:51:18;;;;;;;33.90;20.47;;;;;;;4.01;100.00;91524.88;4881276;29;20580;-73
2021/12/29 05:53:45;;;;;;;25.93;20.10;;;;;;;4.00;100.00;91515.78;4881098;29;20202;-72
2021/12/29 05:56:13;;;;;;;26.67;16.80;;;;;;;3.91;100.00;91526.91;4877481;29;20703;-72
2021/12/29 05:58:41;;;;;;;28.20;17.03;;;;;;;3.96;100.00;91536.72;4879224;29;20480;-72
2021/12/29 06:01:10;;;;;;;21.43;15.83;;;;;;;3.79;100.00;91532.31;4880195;29;20222;-72
2021/12/29 06:03:37;;;;;;;26.67;18.63;;;;;;;3.54;100.00;91492.44;4880121;29;20496;-72
2021/12/29 06:06:04;;;;;;;19.73;15.07;;;;;;;3.82;100.00;91541.41;4878085;29;20568;-71
2021/12/29 06:08:31;;;;;;;31.53;18.27;;;;;;;3.79;100.00;91541.50;4879504;29;20518;-72
2021/12/29 06:10:59;;;;;;;35.97;21.67;;;;;;;3.70;100.00;91525.16;4880804;29;20524;-72
2021/12/29 06:13:27;;;;;;;33.83;20.10;;;;;;;3.67;100.00;91515.25;4879769;29;20610;-73
2021/12/29 06:15:55;;;;;;;39.27;22.57;;;;;;;3.90;100.00;91530.25;4878184;29;20608;-73
2021/12/29 06:18:23;;;;;;;48.80;26.63;;;;;;;3.86;100.00;91530.44;4880127;29;20234;-73
2021/12/29 06:20:50;;;;;;;46.33;27.10;;;;;;;3.82;100.00;91537.22;4881406;29;20578;-74
2021/12/29 06:23:17;;;;;;;50.00;28.40;;;;;;;3.90;100.00;91532.75;4881793;29;20464;-75
2021/12/29 06:25:45;;;;;;;58.13;32.43;;;;;;;3.90;100.00;91527.75;4880569;29;20599;-75
2021/12/29 06:28:12;;;;;;;52.37;29.83;;;;;;;3.95;100.00;91535.91;4880074;29;20620;-73
2021/12/29 06:30:39;;;;;;;65.33;35.23;;;;;;;4.00;100.00;91526.56;4872325;29;20627;-72
2021/12/29 06:33:08;;;;;;;66.47;37.50;;;;;;;4.07;100.00;91527.16;4868713;29;20591;-73
2021/12/29 06:35:35;;;;;;;69.53;36.10;;;;;;;4.04;100.00;91524.78;4873840;29;20239;-73
2021/12/29 06:38:03;;;;;;;58.23;32.60;;;;;;;4.08;100.00;91532.13;4872166;29;20226;-72
2021/12/29 06:40:30;;;;;;;60.27;34.43;;;;;;;4.13;100.00;91537.75;4868092;29;20609;-72
2021/12/29 06:42:57;;;;;;;46.47;30.40;;;;;;;4.11;100.00;91528.69;4875908;29;20555;-74
2021/12/29 06:45:26;;;;;;;50.20;29.97;;;;;;;4.12;100.00;91531.13;4870033;29;20603;-74
2021/12/29 06:47:54;;;;;;;44.40;26.73;;;;;;;4.19;100.00;91529.22;4876693;29;20477;-74
2021/12/29 06:50:22;;;;;;;53.40;29.00;;;;;;;4.30;100.00;91538.81;4879038;29;20560;-74
2021/12/29 06:52:50;;;;;;;48.23;26.73;;;;;;;4.29;100.00;91538.00;4872833;29;20545;-74
2021/12/29 06:55:17;;;;;;;52.50;28.10;;;;;;;4.27;100.00;91528.94;4871286;29;20481;-73
2021/12/29 06:57:47;;;;;;;38.27;26.93;;;;;;;4.33;100.00;91544.53;4871572;29;20508;-74
2021/12/29 07:00:16;;;;;;;28.73;18.90;;;;;;;4.32;100.00;91542.09;4873593;29;20517;-72
2021/12/29 07:02:43;;;;;;;18.80;13.43;;;;;;;4.30;100.00;91538.81;4872260;29;20644;-74
2021/12/29 07:05:10;;;;;;;33.37;19.73;;;;;;;4.32;100.00;91534.59;4868713;29;20581;-73
2021/12/29 07:07:42;;;;;;;31.70;20.57;;;;;;;4.42;100.00;91540.88;4869891;29;20208;-72
2021/12/29 07:10:09;;;;;;;36.00;22.07;;;;;;;4.32;100.00;91534.59;4868357;29;20565;-72
2021/12/29 07:12:37;;;;;;;31.83;18.70;;;;;;;4.29;100.00;91529.69;4874097;29;20616;-72
2021/12/29 07:15:05;;;;;;;21.73;19.17;;;;;;;4.21;100.00;91521.69;4874034;29;20623;-71
2021/12/29 07:17:32;;;;;;;28.87;19.87;;;;;;;4.41;100.00;91550.06;4870530;29;20543;-72
2021/12/29 07:19:59;;;;;;;38.07;22.33;;;;;;;4.42;100.00;91550.88;4872515;29;20595;-73
2021/12/29 07:22:27;;;;;;;48.73;26.50;;;;;;;4.42;100.00;91551.69;4873738;29;20587;-72
2021/12/29 07:24:55;;;;;;;47.97;26.53;;;;;;;4.58;100.00;91552.75;4872036;29;20476;-73
2021/12/29 07:27:23;;;;;;;47.93;25.83;;;;;;;4.54;100.00;91547.94;4873715;29;20484;-72
2021/12/29 07:29:50;;;;;;;38.03;27.13;;;;;;;4.58;100.00;91541.94;4870856;29;20561;-73
2021/12/29 07:32:17;;;;;;;74.47;36.10;;;;;;;4.64;100.00;91546.69;4876621;29;20639;-72
2021/12/29 07:34:45;;;;;;;63.90;32.17;;;;;;;4.65;100.00;91535.00;4872703;29;20479;-73
2021/12/29 07:37:14;;;;;;;88.93;45.40;;;;;;;4.72;100.00;91543.91;4875289;29;20589;-72
2021/12/29 07:39:42;;;;;;;112.03;57.53;;;;;;;4.69;100.00;91531.50;4875989;29;20572;-73
2021/12/29 07:42:12;;;;;;;95.20;49.27;;;;;;;4.66;100.00;91542.47;4875517;29;20494;-73
2021/12/29 07:44:41;;;;;;;72.47;37.23;;;;;;;4.61;100.00;91546.00;4877708;29;20546;-73
2021/12/29 07:47:10;;;;;;;70.67;39.57;;;;;;;4.53;100.00;91553.78;4876175;29;20629;-75
2021/12/29 07:49:37;;;;;;;82.33;43.67;;;;;;;4.43;100.00;91547.50;4862118;29;20565;-73
2021/12/29 07:52:05;;;;;;;71.83;37.93;;;;;;;4.46;100.00;91542.38;4871125;29;20603;-75
2021/12/29 07:54:33;;;;;;;63.60;36.47;;;;;;;4.42;100.00;91539.19;4873856;29;20580;-73
2021/12/29 07:57:00;;;;;;;63.17;35.07;;;;;;;4.37;100.00;91542.75;4875427;29;20507;-75
2021/12/29 07:59:29;;;;;;;83.57;42.50;;;;;;;4.42;100.00;91545.88;4874819;29;20203;-74
2021/12/29 08:01:57;;;;;;;93.67;50.53;;;;;;;4.47;100.00;91546.53;4872470;29;20519;-75
2021/12/29 08:04:25;;;;;;;120.07;55.47;;;;;;;4.48;100.00;91538.16;4874706;29;20607;-74
2021/12/29 08:06:52;;;;;;;104.23;50.30;;;;;;;4.48;100.00;91538.16;4879261;29;20224;-74
2021/12/29 08:09:20;;;;;;;95.93;51.10;;;;;;;4.53;100.00;91518.78;4879964;29;20614;-75
2021/12/29 08:11:47;;;;;;;112.33;54.90;;;;;;;4.68;100.00;91533.19;4879373;29;20202;-76
2021/12/29 08:14:14;;;;;;;99.37;53.90;;;;;;;4.68;100.00;91532.38;4874871;29;20559;-74
2021/12/29 08:16:43;;;;;;;96.17;52.53;;;;;;;4.78;100.00;91544.50;4877413;29;20803;-75
2021/12/29 08:19:10;;;;;;;206.90;103.70;;;;;;;4.79;100.00;91533.59;4877847;29;21045;-75
2021/12/29 08:21:38;;;;;;;150.70;75.80;;;;;;;4.88;100.00;91533.25;4876142;29;20469;-75
2021/12/29 08:24:06;;;;;;;110.57;60.77;;;;;;;5.06;100.00;91545.94;4875995;29;20495;-76
2021/12/29 08:26:33;;;;;;;71.47;39.97;;;;;;;5.07;100.00;91538.34;4874451;29;20637;-74
2021/12/29 08:29:01;;;;;;;78.50;40.57;;;;;;;5.21;100.00;91536.13;4876577;29;20600;-75
2021/12/29 08:31:29;;;;;;;78.73;35.63;;;;;;;5.15;100.00;91518.03;4877939;29;20624;-74
2021/12/29 08:33:58;;;;;;;65.30;33.97;;;;;;;5.31;100.00;91534.06;4873760;29;20659;-74
2021/12/29 08:36:25;;;;;;;106.57;45.70;;;;;;;5.41;100.00;91533.63;4874846;29;20253;-75
2021/12/29 08:38:53;;;;;;;44.40;28.27;;;;;;;5.45;100.00;91541.84;4875639;29;20651;-74
2021/12/29 08:41:20;;;;;;;76.50;44.30;;;;;;;5.45;100.00;91536.81;4875562;29;20595;-74
2021/12/29 08:43:47;;;;;;;34.60;20.10;;;;;;;5.42;100.00;91529.41;4880457;29;20591;-74
2021/12/29 08:46:15;;;;;;;51.00;27.83;;;;;;;5.46;100.00;91533.44;4879825;29;20579;-73
2021/12/29 08:48:43;;;;;;;103.13;49.40;;;;;;;5.50;100.00;91539.94;4875217;29;20198;-73
2021/12/29 08:51:12;;;;;;;91.53;43.87;;;;;;;5.49;100.00;91535.81;4875658;29;20215;-75
2021/12/29 08:53:40;;;;;;;84.73;42.00;;;;;;;5.38;100.00;91535.44;4874344;29;20629;-74
2021/12/29 08:56:08;;;;;;;111.50;50.43;;;;;;;5.28;100.00;91529.19;4877071;29;20219;-74
2021/12/29 08:58:35;;;;;;;73.33;41.77;;;;;;;5.13;100.00;91518.06;4869137;29;20532;-76
2021/12/29 09:01:03;;;;;;;69.77;41.53;;;;;;;5.22;100.00;91524.41;4870064;29;20563;-76
2021/12/29 09:03:31;;;;;;;64.00;39.17;;;;;;;5.01;100.00;91491.84;4879680;29;20655;-76
2021/12/29 09:05:59;;;;;;;66.03;34.40;;;;;;;5.25;100.00;91525.09;4874153;29;20607;-76
2021/12/29 09:08:27;;;;;;;61.77;33.20;;;;;;;5.30;100.00;91514.91;4870913;29;20481;-75
2021/12/29 09:10:55;;;;;;;44.77;29.07;;;;;;;5.26;100.00;91516.72;4873888;29;20689;-75
2021/12/29 09:13:22;;;;;;;61.60;35.63;;;;;;;5.21;100.00;91505.25;4874557;29;20605;-76
2021/12/29 09:15:53;;;;;;;52.87;35.83;;;;;;;5.15;100.00;91493.81;4873626;29;20543;-73
2021/12/29 09:18:21;;;;;;;55.77;30.87;;;;;;;5.24;100.00;91505.94;4876349;29;20581;-74
2021/12/29 09:20:49;;;;;;;64.77;35.53;;;;;;;5.32;100.00;91500.63;4869416;29;20636;-75
2021/12/29 09:23:17;;;;;;;49.70;27.93;;;;;;;5.27;100.00;91483.31;4877711;29;20591;-75
2021/12/29 09:25:47;;;;;;;63.17;33.00;;;;;;;5.40;100.00;91488.63;4878033;29;20282;-75
2021/12/29 09:28:17;;;;;;;63.77;33.63;;;;;;;5.41;100.00;91490.22;4875876;29;20618;-76
2021/12/29 09:30:47;;;;;;;60.30;29.87;;;;;;;5.37;100.00;91483.72;4868200;29;20620;-75
2021/12/29 09:33:16;;;;;;;65.70;32.73;;;;;;;5.46;100.00;91480.03;4874386;29;20599;-75
2021/12/29 09:35:46;;;;;;;66.73;34.13;;;;;;;5.50;100.00;91469.00;4878328;29;20562;-76
2021/12/29 09:38:14;;;;;;;63.27;32.73;;;;;;;5.67;100.00;91461.59;4872994;29;20528;-75
2021/12/29 09:40:42;;;;;;;47.40;27.03;;;;;;;5.78;100.00;91456.94;4871865;29;20757;-76
2021/12/29 09:43:11;;;;;;;51.83;32.53;;;;;;;5.87;100.00;91466.56;4872511;29;20481;-75
2021/12/29 09:45:40;;;;;;;70.73;33.07;;;;;;;5.89;100.00;91464.81;4874286;29;20580;-74
2021/12/29 09:48:08;;;;;;;53.07;30.43;;;;;;;5.97;100.00;91464.50;4874180;29;20568;-76
2021/12/29 09:50:37;;;;;;;60.70;30.03;;;;;;;6.07;100.00;91460.69;4870736;29;20492;-75
2021/12/29 09:53:04;;;;;;;41.87;23.60;;;;;;;6.04;100.00;91450.78;4873783;29;20599;-75
2021/12/29 09:55:32;;;;;;;45.07;26.13;;;;;;;6.21;100.00;91461.69;4877906;29;20542;-76
2021/12/29 09:58:00;;;;;;;48.33;28.37;;;;;;;6.29;100.00;91461.34;4877807;29;20318;-75
2021/12/29 10:00:32;;;;;;;54.07;29.23;;;;;;;6.35;100.00;91460.28;4871302;29;20601;-75
2021/12/29 10:03:03;;;;;;;52.90;26.37;;;;;;;6.35;100.00;91456.06;4872733;29;20568;-75
2021/12/29 10:05:31;;;;;;;30.47;24.10;;;;;;;6.34;100.00;91449.41;4866263;29;20576;-75
2021/12/29 10:08:01;;;;;;;23.17;15.67;;;;;;;6.34;100.00;91446.91;4874198;29;20531;-74
2021/12/29 10:10:29;;;;;;;22.93;16.23;;;;;;;6.35;100.00;91446.03;4877303;29;20485;-76
2021/12/29 10:12:57;;;;;;;34.43;19.90;;;;;;;6.43;100.00;91448.16;4878508;29;20611;-74
2021/12/29 10:15:31;;;;;;;36.90;23.53;;;;;;;6.47;100.00;91452.19;4865790;29;20211;-73
2021/12/29 10:18:10;;;;;;;49.47;24.17;;;;;;;6.44;100.00;91435.56;4873921;29;20595;-74
2021/12/29 10:20:47;;;;;;;33.30;23.90;;;;;;;6.53;100.00;91440.19;4874216;29;20245;-74
2021/12/29 10:23:21;;;;;;;33.23;21.97;;;;;;;6.56;100.00;91444.22;4876505;29;20572;-74
2021/12/29 10:25:48;;;;;;;21.93;14.50;;;;;;;6.53;100.00;91441.88;4874113;29;20487;-73
2021/12/29 10:28:26;;;;;;;25.87;16.13;;;;;;;6.56;100.00;91440.03;4871948;29;20572;-73
2021/12/29 10:31:01;;;;;;;20.53;15.60;;;;;;;6.63;100.00;91440.56;4874408;29;20568;-73
2021/12/29 10:33:33;;;;;;;29.30;15.63;;;;;;;6.55;100.00;91435.88;4873229;29;20206;-75
2021/12/29 10:36:16;;;;;;;24.63;16.17;;;;;;;6.53;100.00;91434.34;4870074;29;20557;-76
2021/12/29 10:38:44;;;;;;;16.80;14.17;;;;;;;6.51;100.00;91438.63;4871436;29;20343;-73
2021/12/29 10:41:12;;;;;;;38.97;20.00;;;;;;;6.50;100.00;91434.47;4878305;29;20580;-74
2021/12/29 10:43:40;;;;;;;32.73;21.40;;;;;;;6.47;100.00;91424.59;4876173;29;20663;-74
2021/12/29 10:46:18;;;;;;;56.60;26.37;;;;;;;6.61;100.00;91437.28;4865559;29;20524;-73
2021/12/29 10:48:49;;;;;;;43.73;22.33;;;;;;;6.59;100.00;91434.84;4866840;29;20636;-73
2021/12/29 10:51:16;;;;;;;44.67;23.97;;;;;;;6.42;100.00;91399.69;4870889;29;20519;-73
2021/12/29 10:53:44;;;;;;;43.17;24.37;;;;;;;6.62;100.00;91428.88;4872481;29;20551;-75
2021/12/29 10:56:23;;;;;;;64.13;32.13;;;;;;;6.51;100.00;91416.84;4868160;29;20657;-75
2021/12/29 10:58:53;;;;;;;64.80;35.10;;;;;;;6.58;100.00;91425.72;4853580;29;20715;-73
2021/12/29 11:01:23;;;;;;;76.03;35.10;;;;;;;6.62;100.00;91424.69;4873673;29;20556;-73
2021/12/29 11:03:53;;;;;;;72.90;34.77;;;;;;;6.61;100.00;91415.53;4875575;29;20203;-73
2021/12/29 11:06:26;;;;;;;58.77;31.80;;;;;;;6.60;100.00;91413.91;4874361;29;20572;-74
2021/12/29 11:08:57;;;;;;;42.27;24.80;;;;;;;6.63;100.00;91411.25;4874611;29;20580;-74
2021/12/29 11:11:32;;;;;;;120.83;50.37;;;;;;;6.53;100.00;91395.03;4875757;29;20238;-74
2021/12/29 11:14:08;;;;;;;101.20;46.13;;;;;;;6.56;100.00;91399.06;4874679;29;20546;-73
2021/12/29 11:16:37;;;;;;;110.57;46.63;;;;;;;6.46;100.00;91406.22;4872136;29;20633;-73
2021/12/29 11:19:04;;;;;;;101.87;48.70;;;;;;;6.38;100.00;91405.75;4873053;29;20507;-74
2021/12/29 11:21:33;;;;;;;63.13;33.53;;;;;;;6.31;100.00;91399.38;4875433;29;20487;-75
2021/12/29 11:24:12;;;;;;;70.63;34.47;;;;;;;6.19;100.00;91389.94;4875487;29;20453;-74
2021/12/29 11:26:40;;;;;;;44.23;24.67;;;;;;;5.98;100.00;91371.66;4872663;29;20305;-74
2021/12/29 11:29:09;;;;;;;73.23;31.13;;;;;;;6.05;100.00;91385.56;4873590;29;20686;-73